METAR Data
IDs: Format: Raw Decoded Include TAF

Data at: 0314 UTC 01 Feb 2023

LIBA 010155Z 24005KT CAVOK 01/M01 Q1023 RMK SKC VIS MIN 9999 WIND THR11 24005KT WIND THR29 /////KT BLU

TAF LIBA 010200Z 0103/0112 24007KT 9999 FEW040

No METAR found for LIBC

TAF LIBC 311700Z 3118/0118 35012KT CAVOK
  BECMG 0106/0108 VRB06KT
  BECMG 0110/0112 22012KT


LIBD 010250Z 26006KT 9999 SCT045 05/M00 Q1023

TAF LIBD 312300Z 0100/0124 26010KT 9999 SCT040
  BECMG 0108/0110 VRB04KT


LIBF 312150Z 25007KT CAVOK 02/M00 Q1023

TAF LIBF 311700Z 3118/0118 26010KT 9999 FEW040
  TEMPO 0108/0116 26015G25KT


No METAR found for LIBG

TAF LIBG 311700Z 3118/0103 33010KT CAVOK

LIBP 010250Z AUTO 24008KT 9999 FEW190/// 05/M03 Q1022

TAF LIBP 312300Z 0100/0124 VRB05KT CAVOK

LIBR 010250Z AUTO 01013KT 9999 NCD 10/M00 Q1022

TAF LIBR 312300Z 0100/0124 34014KT CAVOK

LIBV 010255Z 30006KT CAVOK 03/M00 Q1021 RMK SKC VIS MIN 9999 WIND THR32 31007KT WIND THR14 31007KT BLU

TAF LIBV 312300Z 0100/0109 30008KT CAVOK
  TEMPO 0103/0107 9999 FEW030


LICA 010250Z AUTO 08006KT 9999 NCD 00/M02 Q1024

TAF LICA 312300Z 0100/0124 07008KT 9999 FEW030
  BECMG 0109/0111 27012KT
  BECMG 0119/0121 VRB05KT


LICC 010250Z 25003KT 9999 FEW050 03/01 Q1024

TAF LICC 312300Z 0100/0124 26008KT 9999 FEW050

LICD 010250Z AUTO 29010KT 9999 -DZ SCT028/// BKN061/// 13/09 Q1024

TAF LICD 312300Z 0100/0124 32014KT 9999 SCT050
  BECMG 0114/0116 VRB05KT


No METAR found for LICG

TAF LICG 311700Z 3118/0103 31015KT 9999 SCT020

LICJ 010250Z AUTO 17004KT 9999 NCD 07/02 Q1024

TAF LICJ 312300Z 0100/0124 02010KT 9999 SCT030
  BECMG 0103/0105 VRB05KT
  BECMG 0116/0118 24010KT


LICR 010250Z AUTO 03006KT 9999 NCD 08/M00 Q1024

TAF LICR 312300Z 0100/0124 01012KT 9999 FEW050

LICT 010255Z 11006KT CAVOK 05/03 Q1025 RMK SKC VIS MIN 9999 WIND THR13 1204KT BLU

TAF LICT 010200Z 0103/0112 07008KT 9999 SCT025

LICZ 010255Z /////KT CAVOK 03/02 Q1023 RMK SKC VIS MIN 9999 WIND THR28 24006KT WIND THR10 22002KT A3023 BLU

TAF LICZ 312300Z 0100/0124 26008KT CAVOK
  PROB40
  TEMPO 0101/0108 5000 BR FEW010


LIEA 010250Z VRB01KT 9999 R20/1200U MIFG NSC 02/02 Q1024

TAF LIEA 312300Z 0100/0124 VRB05KT 8000 FEW020
  TEMPO 0100/0105 2000 BCFG
  BECMG 0108/0110 25012KT
  BECMG 0118/0120 VRB05KT


LIEE 010250Z 36005KT CAVOK 03/03 Q1025

TAF LIEE 312300Z 0100/0124 34006KT 9999 SCT050
  TEMPO 0100/0106 3000 BCFG


LIED 010255Z 01004KT 9999 FEW003 03/01 Q1024 RMK FEW VIS MIN 9999 WIND THR35 /////KT WIND THR17 02004KT BLU

TAF LIED 010200Z 0103/0112 VRB03KT CAVOK
  BECMG 0106/0107 33005KT


LIEO 010250Z AUTO 26003KT 9999 NCD 05/04 Q1025

TAF LIEO 312300Z 0100/0124 VRB05KT 9999 FEW030
  BECMG 0108/0110 26010KT
  BECMG 0116/0118 VRB05KT


LIPR 010250Z AUTO 22003KT 9999 NCD M00/M03 Q1021

TAF LIPR 312300Z 0100/0124 VRB05KT CAVOK
  TEMPO 0100/0107 2000 BR


LIPY 010250Z AUTO VRB02KT 9999 NCD 03/M02 Q1021

TAF LIPY 312300Z 0100/0124 VRB04KT CAVOK
  BECMG 0107/0109 28010KT
  BECMG 0114/0116 VRB04KT


LIRA 010250Z 04003KT CAVOK 02/02 Q1024

TAF LIRA 312300Z 0100/0124 VRB05KT CAVOK

LIRE 010255Z 04005KT CAVOK 06/04 Q1024 RMK SKC VIS MIN 9999 WIND THR13 04003KT WIND THR31 /////KT BLU

TAF LIRE 010200Z 0103/0112 05004KT 9999 FEW020 SCT040

LIRF 010250Z 07003KT CAVOK 02/01 Q1024 NOSIG

TAF LIRF 312300Z 0100/0206 06007KT CAVOK

No METAR found for LIRG
No TAF found for LIRG

No METAR found for LIRH
No TAF found for LIRH

No METAR found for LIRL
No TAF found for LIRL

LIRM 010255Z 01005KT CAVOK 02/00 Q1023 RMK SKC VIS MIN 9999 WIND THR06 02005KT BLU

TAF LIRM 010200Z 0103/0112 35005KT 9999 FEW030

LIRN 010250Z 35001KT CAVOK 01/M04 Q1024 NOSIG

TAF LIRN 312300Z 0100/0124 VRB05KT CAVOK
  BECMG 0110/0112 25010KT
  BECMG 0119/0121 VRB05KT


LIRP 010245Z 13003KT 9999 FEW035 02/02 Q1023 NOSIG

TAF LIRP 311700Z 3118/0118 13008KT 9999 FEW040
  BECMG 3122/3124 9999 SCT020 BKN030
  TEMPO 3123/0106 5000 BR SCT010


LIRQ 010250Z VRB01KT CAVOK 03/01 Q1023

TAF LIRQ 312300Z 0100/0124 VRB05KT 9999 FEW030

LIRS 010255Z 07003KT 9999 FEW060 01/M00 Q1023 RMK BKN BKN200 VIS MIN 9999 WIND THR03 06004KT WIND THR21 11002KT BLU

TAF LIRS 010200Z 0103/0112 01005KT CAVOK
  PROB40
  TEMPO 0103/0106 5000 BR FEW010


LIRZ 010250Z AUTO 36003KT 9999 NCD M00/M03 Q1023

TAF LIRZ 312300Z 0100/0124 VRB05KT 9999 FEW040

LMML 010245Z 31005KT 9999 FEW045 08/04 Q1023 NOSIG

TAF LMML 312300Z 0100/0124 01009KT 9999 FEW025
  BECMG 0115/0118 29010KT


DTTA 010300Z 23007KT 9999 SCT026 SCT040 10/07 Q1026

TAF DTTA 312300Z 0100/0124 26007KT 9999 SCT020
  BECMG 0115/0117 VRB02KT
  BECMG 0119/0121 25010KT


DTTJ 010300Z 36011KT 9999 FEW020 SCT026 12/06 Q1026 NOSIG

TAF DTTJ 312300Z 0100/0124 23007KT 9999 FEW020
  BECMG 0101/0103 35010KT
  BECMG 0110/0112 28010KT
  BECMG 0115/0117 VRB02KT